sensor_id;sensor_type;location;lat;lon;timestamp;P1;durP1;ratioP1;P2;durP2;ratioP2
57846;SDS011;43675;50.030;21.952;2022-10-14T00:02:00;115.50;;;78.22;;
57846;SDS011;43675;50.030;21.952;2022-10-14T00:04:25;123.75;;;77.85;;
57846;SDS011;43675;50.030;21.952;2022-10-14T00:06:58;103.78;;;74.80;;
57846;SDS011;43675;50.030;21.952;2022-10-14T00:09:23;109.83;;;76.60;;
57846;SDS011;43675;50.030;21.952;2022-10-14T00:11:49;109.05;;;75.90;;
57846;SDS011;43675;50.030;21.952;2022-10-14T00:14:16;110.22;;;75.30;;
57846;SDS011;43675;50.030;21.952;2022-10-14T00:16:44;102.25;;;72.12;;
57846;SDS011;43675;50.030;21.952;2022-10-14T00:21:44;102.35;;;71.22;;
57846;SDS011;43675;50.030;21.952;2022-10-14T00:24:10;97.37;;;70.40;;
57846;SDS011;43675;50.030;21.952;2022-10-14T00:26:38;97.08;;;71.12;;
57846;SDS011;43675;50.030;21.952;2022-10-14T00:29:06;92.27;;;68.57;;
57846;SDS011;43675;50.030;21.952;2022-10-14T00:31:33;97.72;;;69.10;;
57846;SDS011;43675;50.030;21.952;2022-10-14T00:34:00;89.50;;;67.78;;
57846;SDS011;43675;50.030;21.952;2022-10-14T00:36:26;91.72;;;67.40;;
57846;SDS011;43675;50.030;21.952;2022-10-14T00:38:58;90.10;;;67.35;;
57846;SDS011;43675;50.030;21.952;2022-10-14T00:41:25;88.10;;;69.17;;
57846;SDS011;43675;50.030;21.952;2022-10-14T00:46:35;80.45;;;62.40;;
57846;SDS011;43675;50.030;21.952;2022-10-14T00:49:05;86.70;;;64.80;;
57846;SDS011;43675;50.030;21.952;2022-10-14T00:51:35;81.15;;;61.13;;
57846;SDS011;43675;50.030;21.952;2022-10-14T00:54:03;87.40;;;65.47;;
57846;SDS011;43675;50.030;21.952;2022-10-14T00:56:29;78.25;;;61.48;;
57846;SDS011;43675;50.030;21.952;2022-10-14T00:58:56;89.95;;;63.80;;
57846;SDS011;43675;50.030;21.952;2022-10-14T01:01:24;80.67;;;61.58;;
57846;SDS011;43675;50.030;21.952;2022-10-14T01:03:50;84.80;;;62.15;;
57846;SDS011;43675;50.030;21.952;2022-10-14T01:17:11;93.52;;;65.12;;
57846;SDS011;43675;50.030;21.952;2022-10-14T01:22:46;93.72;;;67.35;;
57846;SDS011;43675;50.030;21.952;2022-10-14T01:25:48;96.53;;;64.67;;
57846;SDS011;43675;50.030;21.952;2022-10-14T01:30:47;91.85;;;63.05;;
57846;SDS011;43675;50.030;21.952;2022-10-14T01:33:21;96.82;;;64.12;;
57846;SDS011;43675;50.030;21.952;2022-10-14T01:35:57;85.77;;;62.53;;
57846;SDS011;43675;50.030;21.952;2022-10-14T01:38:50;88.97;;;63.17;;
57846;SDS011;43675;50.030;21.952;2022-10-14T01:41:22;89.25;;;64.90;;
57846;SDS011;43675;50.030;21.952;2022-10-14T01:43:51;88.25;;;63.65;;
57846;SDS011;43675;50.030;21.952;2022-10-14T01:46:19;96.70;;;63.68;;
57846;SDS011;43675;50.030;21.952;2022-10-14T01:48:52;83.20;;;60.92;;
57846;SDS011;43675;50.030;21.952;2022-10-14T01:51:25;86.22;;;60.12;;
57846;SDS011;43675;50.030;21.952;2022-10-14T01:53:58;79.75;;;60.73;;
57846;SDS011;43675;50.030;21.952;2022-10-14T01:56:31;84.28;;;61.58;;
57846;SDS011;43675;50.030;21.952;2022-10-14T01:58:59;83.60;;;60.90;;
57846;SDS011;43675;50.030;21.952;2022-10-14T02:01:27;87.30;;;61.73;;
57846;SDS011;43675;50.030;21.952;2022-10-14T02:03:59;82.47;;;57.93;;
57846;SDS011;43675;50.030;21.952;2022-10-14T02:06:25;94.20;;;61.42;;
57846;SDS011;43675;50.030;21.952;2022-10-14T02:09:09;84.52;;;61.37;;
57846;SDS011;43675;50.030;21.952;2022-10-14T02:11:47;91.25;;;62.10;;
57846;SDS011;43675;50.030;21.952;2022-10-14T02:14:42;85.65;;;61.60;;
57846;SDS011;43675;50.030;21.952;2022-10-14T02:17:22;88.27;;;61.53;;
57846;SDS011;43675;50.030;21.952;2022-10-14T02:19:51;91.32;;;61.92;;
57846;SDS011;43675;50.030;21.952;2022-10-14T02:24:52;93.25;;;63.80;;
57846;SDS011;43675;50.030;21.952;2022-10-14T02:27:20;96.92;;;65.78;;
57846;SDS011;43675;50.030;21.952;2022-10-14T02:29:49;98.27;;;67.55;;
57846;SDS011;43675;50.030;21.952;2022-10-14T02:32:17;106.30;;;69.82;;
57846;SDS011;43675;50.030;21.952;2022-10-14T02:34:45;97.30;;;69.00;;
57846;SDS011;43675;50.030;21.952;2022-10-14T02:37:20;97.62;;;68.57;;
57846;SDS011;43675;50.030;21.952;2022-10-14T02:40:04;97.95;;;70.65;;
57846;SDS011;43675;50.030;21.952;2022-10-14T02:42:31;101.38;;;68.15;;
57846;SDS011;43675;50.030;21.952;2022-10-14T02:44:57;106.52;;;72.05;;
57846;SDS011;43675;50.030;21.952;2022-10-14T02:47:31;127.25;;;85.17;;
57846;SDS011;43675;50.030;21.952;2022-10-14T02:49:56;110.15;;;72.97;;
57846;SDS011;43675;50.030;21.952;2022-10-14T02:52:22;107.07;;;72.25;;
57846;SDS011;43675;50.030;21.952;2022-10-14T02:54:48;108.27;;;74.60;;
57846;SDS011;43675;50.030;21.952;2022-10-14T02:57:13;113.70;;;74.82;;
57846;SDS011;43675;50.030;21.952;2022-10-14T02:59:39;105.07;;;74.30;;
57846;SDS011;43675;50.030;21.952;2022-10-14T03:02:05;95.67;;;65.35;;
57846;SDS011;43675;50.030;21.952;2022-10-14T03:04:31;92.65;;;60.28;;
57846;SDS011;43675;50.030;21.952;2022-10-14T03:06:57;87.17;;;60.38;;
57846;SDS011;43675;50.030;21.952;2022-10-14T03:09:30;91.80;;;63.42;;
57846;SDS011;43675;50.030;21.952;2022-10-14T03:12:02;92.50;;;62.55;;
57846;SDS011;43675;50.030;21.952;2022-10-14T03:14:27;88.62;;;61.60;;
57846;SDS011;43675;50.030;21.952;2022-10-14T03:17:00;96.05;;;62.40;;
57846;SDS011;43675;50.030;21.952;2022-10-14T03:19:25;94.50;;;63.80;;
57846;SDS011;43675;50.030;21.952;2022-10-14T03:21:51;159.18;;;93.52;;
57846;SDS011;43675;50.030;21.952;2022-10-14T03:24:17;161.12;;;92.75;;
57846;SDS011;43675;50.030;21.952;2022-10-14T03:26:43;131.37;;;83.80;;
57846;SDS011;43675;50.030;21.952;2022-10-14T03:29:08;103.53;;;66.75;;
57846;SDS011;43675;50.030;21.952;2022-10-14T03:31:34;99.05;;;62.73;;
57846;SDS011;43675;50.030;21.952;2022-10-14T03:34:00;116.70;;;72.22;;
57846;SDS011;43675;50.030;21.952;2022-10-14T03:36:25;138.37;;;86.17;;
57846;SDS011;43675;50.030;21.952;2022-10-14T03:38:51;113.47;;;75.03;;
57846;SDS011;43675;50.030;21.952;2022-10-14T03:41:16;88.50;;;61.63;;
57846;SDS011;43675;50.030;21.952;2022-10-14T03:43:42;90.45;;;62.33;;
57846;SDS011;43675;50.030;21.952;2022-10-14T03:46:08;87.78;;;60.10;;
57846;SDS011;43675;50.030;21.952;2022-10-14T03:48:33;77.80;;;56.80;;
57846;SDS011;43675;50.030;21.952;2022-10-14T03:50:59;88.17;;;61.53;;
57846;SDS011;43675;50.030;21.952;2022-10-14T03:53:25;86.10;;;59.20;;
57846;SDS011;43675;50.030;21.952;2022-10-14T03:55:57;85.12;;;59.95;;
57846;SDS011;43675;50.030;21.952;2022-10-14T03:58:22;86.75;;;59.73;;
57846;SDS011;43675;50.030;21.952;2022-10-14T04:00:48;85.10;;;57.93;;
57846;SDS011;43675;50.030;21.952;2022-10-14T04:03:14;88.33;;;60.88;;
57846;SDS011;43675;50.030;21.952;2022-10-14T04:05:39;81.20;;;54.75;;
57846;SDS011;43675;50.030;21.952;2022-10-14T04:08:06;73.80;;;51.55;;
57846;SDS011;43675;50.030;21.952;2022-10-14T04:10:31;71.95;;;49.40;;
57846;SDS011;43675;50.030;21.952;2022-10-14T04:13:04;79.55;;;53.28;;
57846;SDS011;43675;50.030;21.952;2022-10-14T04:15:30;82.35;;;54.58;;
57846;SDS011;43675;50.030;21.952;2022-10-14T04:17:55;80.53;;;53.23;;
57846;SDS011;43675;50.030;21.952;2022-10-14T04:20:27;78.33;;;53.60;;
57846;SDS011;43675;50.030;21.952;2022-10-14T04:22:53;76.47;;;52.98;;
57846;SDS011;43675;50.030;21.952;2022-10-14T04:25:18;90.10;;;57.30;;
57846;SDS011;43675;50.030;21.952;2022-10-14T04:27:44;81.72;;;52.70;;
57846;SDS011;43675;50.030;21.952;2022-10-14T04:30:10;84.80;;;54.50;;
57846;SDS011;43675;50.030;21.952;2022-10-14T04:32:37;84.45;;;57.58;;
57846;SDS011;43675;50.030;21.952;2022-10-14T04:35:03;93.50;;;60.78;;
57846;SDS011;43675;50.030;21.952;2022-10-14T04:37:28;84.83;;;60.45;;
57846;SDS011;43675;50.030;21.952;2022-10-14T04:39:54;95.62;;;61.30;;
57846;SDS011;43675;50.030;21.952;2022-10-14T04:42:20;99.10;;;60.43;;
57846;SDS011;43675;50.030;21.952;2022-10-14T04:44:45;100.25;;;64.80;;
57846;SDS011;43675;50.030;21.952;2022-10-14T04:47:11;97.85;;;64.10;;
57846;SDS011;43675;50.030;21.952;2022-10-14T04:49:36;103.92;;;65.00;;
57846;SDS011;43675;50.030;21.952;2022-10-14T04:52:02;102.97;;;67.37;;
57846;SDS011;43675;50.030;21.952;2022-10-14T04:54:28;98.58;;;66.05;;
57846;SDS011;43675;50.030;21.952;2022-10-14T04:56:53;97.20;;;66.30;;
57846;SDS011;43675;50.030;21.952;2022-10-14T04:59:19;107.90;;;64.80;;
57846;SDS011;43675;50.030;21.952;2022-10-14T05:01:51;108.75;;;65.70;;
57846;SDS011;43675;50.030;21.952;2022-10-14T05:04:17;100.25;;;64.22;;
57846;SDS011;43675;50.030;21.952;2022-10-14T05:06:42;105.05;;;62.75;;
57846;SDS011;43675;50.030;21.952;2022-10-14T05:09:08;108.97;;;63.35;;
57846;SDS011;43675;50.030;21.952;2022-10-14T05:11:34;102.17;;;61.42;;
57846;SDS011;43675;50.030;21.952;2022-10-14T05:14:06;105.83;;;62.93;;
57846;SDS011;43675;50.030;21.952;2022-10-14T05:16:31;118.05;;;65.50;;
57846;SDS011;43675;50.030;21.952;2022-10-14T05:18:57;102.75;;;60.85;;
57846;SDS011;43675;50.030;21.952;2022-10-14T05:21:26;116.12;;;64.15;;
57846;SDS011;43675;50.030;21.952;2022-10-14T05:23:51;120.55;;;64.80;;
57846;SDS011;43675;50.030;21.952;2022-10-14T05:26:17;101.65;;;63.08;;
57846;SDS011;43675;50.030;21.952;2022-10-14T05:28:43;99.15;;;62.35;;
57846;SDS011;43675;50.030;21.952;2022-10-14T05:31:08;102.92;;;60.12;;
57846;SDS011;43675;50.030;21.952;2022-10-14T05:33:34;95.53;;;58.23;;
57846;SDS011;43675;50.030;21.952;2022-10-14T05:36:00;96.17;;;59.45;;
57846;SDS011;43675;50.030;21.952;2022-10-14T05:38:25;94.30;;;58.45;;
57846;SDS011;43675;50.030;21.952;2022-10-14T05:40:57;103.53;;;60.63;;
57846;SDS011;43675;50.030;21.952;2022-10-14T05:43:23;91.08;;;58.60;;
57846;SDS011;43675;50.030;21.952;2022-10-14T05:45:49;92.92;;;58.17;;
57846;SDS011;43675;50.030;21.952;2022-10-14T05:48:15;93.92;;;58.50;;
57846;SDS011;43675;50.030;21.952;2022-10-14T05:50:41;89.10;;;56.75;;
57846;SDS011;43675;50.030;21.952;2022-10-14T05:53:07;84.83;;;58.17;;
57846;SDS011;43675;50.030;21.952;2022-10-14T05:55:33;86.25;;;54.65;;
57846;SDS011;43675;50.030;21.952;2022-10-14T05:57:59;83.30;;;55.45;;
57846;SDS011;43675;50.030;21.952;2022-10-14T06:00:25;86.65;;;55.73;;
57846;SDS011;43675;50.030;21.952;2022-10-14T06:02:57;82.25;;;55.33;;
57846;SDS011;43675;50.030;21.952;2022-10-14T06:05:23;82.67;;;56.28;;
57846;SDS011;43675;50.030;21.952;2022-10-14T06:07:49;75.20;;;51.70;;
57846;SDS011;43675;50.030;21.952;2022-10-14T06:10:14;70.25;;;50.08;;
57846;SDS011;43675;50.030;21.952;2022-10-14T06:12:40;71.37;;;52.00;;
57846;SDS011;43675;50.030;21.952;2022-10-14T06:15:06;70.00;;;49.30;;
57846;SDS011;43675;50.030;21.952;2022-10-14T06:17:32;66.65;;;48.80;;
57846;SDS011;43675;50.030;21.952;2022-10-14T06:19:57;73.00;;;48.80;;
57846;SDS011;43675;50.030;21.952;2022-10-14T06:22:23;64.70;;;48.92;;
57846;SDS011;43675;50.030;21.952;2022-10-14T06:24:49;67.67;;;50.60;;
57846;SDS011;43675;50.030;21.952;2022-10-14T06:27:21;70.90;;;49.90;;
57846;SDS011;43675;50.030;21.952;2022-10-14T06:29:46;59.90;;;45.52;;
57846;SDS011;43675;50.030;21.952;2022-10-14T06:32:12;60.35;;;45.20;;
57846;SDS011;43675;50.030;21.952;2022-10-14T06:34:37;65.00;;;47.05;;
57846;SDS011;43675;50.030;21.952;2022-10-14T06:37:03;70.57;;;50.05;;
57846;SDS011;43675;50.030;21.952;2022-10-14T06:39:35;74.40;;;49.60;;
57846;SDS011;43675;50.030;21.952;2022-10-14T06:42:01;72.53;;;48.78;;
57846;SDS011;43675;50.030;21.952;2022-10-14T06:44:27;67.42;;;46.50;;
57846;SDS011;43675;50.030;21.952;2022-10-14T06:46:59;63.17;;;46.00;;
57846;SDS011;43675;50.030;21.952;2022-10-14T06:49:25;61.50;;;45.58;;
57846;SDS011;43675;50.030;21.952;2022-10-14T06:51:50;61.13;;;45.55;;
57846;SDS011;43675;50.030;21.952;2022-10-14T06:54:16;60.67;;;45.40;;
57846;SDS011;43675;50.030;21.952;2022-10-14T06:56:42;69.37;;;46.75;;
57846;SDS011;43675;50.030;21.952;2022-10-14T06:59:14;58.33;;;45.03;;
57846;SDS011;43675;50.030;21.952;2022-10-14T07:01:39;54.13;;;44.25;;
57846;SDS011;43675;50.030;21.952;2022-10-14T07:04:05;49.75;;;42.05;;
57846;SDS011;43675;50.030;21.952;2022-10-14T07:06:31;50.85;;;41.20;;
57846;SDS011;43675;50.030;21.952;2022-10-14T07:08:56;50.33;;;41.30;;
57846;SDS011;43675;50.030;21.952;2022-10-14T07:11:29;53.30;;;41.73;;
57846;SDS011;43675;50.030;21.952;2022-10-14T07:13:55;48.23;;;40.40;;
57846;SDS011;43675;50.030;21.952;2022-10-14T07:16:21;47.95;;;42.62;;
57846;SDS011;43675;50.030;21.952;2022-10-14T07:18:48;46.55;;;40.35;;
57846;SDS011;43675;50.030;21.952;2022-10-14T07:21:13;47.67;;;40.05;;
57846;SDS011;43675;50.030;21.952;2022-10-14T07:23:39;45.30;;;38.85;;
57846;SDS011;43675;50.030;21.952;2022-10-14T07:26:05;48.42;;;39.67;;
57846;SDS011;43675;50.030;21.952;2022-10-14T07:28:31;44.30;;;39.00;;
57846;SDS011;43675;50.030;21.952;2022-10-14T07:30:57;46.65;;;38.48;;
57846;SDS011;43675;50.030;21.952;2022-10-14T07:33:24;46.33;;;40.83;;
57846;SDS011;43675;50.030;21.952;2022-10-14T07:35:50;49.20;;;41.40;;
57846;SDS011;43675;50.030;21.952;2022-10-14T07:38:16;53.35;;;45.83;;
57846;SDS011;43675;50.030;21.952;2022-10-14T07:41:05;63.98;;;48.02;;
57846;SDS011;43675;50.030;21.952;2022-10-14T07:43:35;61.90;;;46.47;;
57846;SDS011;43675;50.030;21.952;2022-10-14T07:46:02;63.17;;;47.70;;
57846;SDS011;43675;50.030;21.952;2022-10-14T07:48:30;63.73;;;46.18;;
57846;SDS011;43675;50.030;21.952;2022-10-14T07:50:57;65.08;;;45.70;;
57846;SDS011;43675;50.030;21.952;2022-10-14T07:53:23;67.05;;;48.68;;
57846;SDS011;43675;50.030;21.952;2022-10-14T07:55:49;67.22;;;49.13;;
57846;SDS011;43675;50.030;21.952;2022-10-14T07:58:15;68.33;;;48.10;;
57846;SDS011;43675;50.030;21.952;2022-10-14T08:00:41;58.68;;;47.95;;
57846;SDS011;43675;50.030;21.952;2022-10-14T08:03:06;66.62;;;47.35;;
57846;SDS011;43675;50.030;21.952;2022-10-14T08:05:32;61.40;;;45.50;;
57846;SDS011;43675;50.030;21.952;2022-10-14T08:07:57;64.55;;;46.13;;
57846;SDS011;43675;50.030;21.952;2022-10-14T08:10:30;55.45;;;43.38;;
57846;SDS011;43675;50.030;21.952;2022-10-14T08:12:55;63.40;;;43.73;;
57846;SDS011;43675;50.030;21.952;2022-10-14T08:15:21;59.93;;;45.12;;
57846;SDS011;43675;50.030;21.952;2022-10-14T08:17:47;52.70;;;42.23;;
57846;SDS011;43675;50.030;21.952;2022-10-14T08:20:12;53.13;;;40.90;;
57846;SDS011;43675;50.030;21.952;2022-10-14T08:22:38;54.27;;;39.35;;
57846;SDS011;43675;50.030;21.952;2022-10-14T08:25:04;57.35;;;38.70;;
57846;SDS011;43675;50.030;21.952;2022-10-14T08:27:30;55.58;;;39.10;;
57846;SDS011;43675;50.030;21.952;2022-10-14T08:29:55;52.60;;;38.40;;
57846;SDS011;43675;50.030;21.952;2022-10-14T08:32:21;46.15;;;37.17;;
57846;SDS011;43675;50.030;21.952;2022-10-14T08:34:46;55.60;;;38.75;;
57846;SDS011;43675;50.030;21.952;2022-10-14T08:37:12;44.88;;;36.40;;
57846;SDS011;43675;50.030;21.952;2022-10-14T08:39:44;46.00;;;35.10;;
57846;SDS011;43675;50.030;21.952;2022-10-14T08:42:13;43.58;;;35.83;;
57846;SDS011;43675;50.030;21.952;2022-10-14T08:44:41;43.55;;;36.28;;
57846;SDS011;43675;50.030;21.952;2022-10-14T08:47:15;46.53;;;35.00;;
57846;SDS011;43675;50.030;21.952;2022-10-14T08:49:50;45.95;;;33.53;;
57846;SDS011;43675;50.030;21.952;2022-10-14T08:52:19;46.35;;;33.73;;
57846;SDS011;43675;50.030;21.952;2022-10-14T08:54:56;48.45;;;35.40;;
57846;SDS011;43675;50.030;21.952;2022-10-14T08:57:25;44.58;;;31.40;;
57846;SDS011;43675;50.030;21.952;2022-10-14T08:59:53;37.40;;;31.10;;
57846;SDS011;43675;50.030;21.952;2022-10-14T09:05:14;38.88;;;30.68;;
57846;SDS011;43675;50.030;21.952;2022-10-14T09:07:45;37.23;;;32.05;;
57846;SDS011;43675;50.030;21.952;2022-10-14T09:10:14;41.23;;;31.75;;
57846;SDS011;43675;50.030;21.952;2022-10-14T09:12:48;45.15;;;32.08;;
57846;SDS011;43675;50.030;21.952;2022-10-14T09:15:17;36.85;;;31.95;;
57846;SDS011;43675;50.030;21.952;2022-10-14T09:20:44;42.95;;;31.95;;
57846;SDS011;43675;50.030;21.952;2022-10-14T09:23:26;39.85;;;31.93;;
57846;SDS011;43675;50.030;21.952;2022-10-14T09:26:00;38.38;;;30.10;;
57846;SDS011;43675;50.030;21.952;2022-10-14T09:28:32;39.48;;;32.05;;
57846;SDS011;43675;50.030;21.952;2022-10-14T09:31:07;35.05;;;31.35;;
57846;SDS011;43675;50.030;21.952;2022-10-14T09:33:43;40.23;;;31.23;;
57846;SDS011;43675;50.030;21.952;2022-10-14T09:36:16;38.40;;;31.10;;
57846;SDS011;43675;50.030;21.952;2022-10-14T09:38:51;35.17;;;30.50;;
57846;SDS011;43675;50.030;21.952;2022-10-14T09:41:21;28.47;;;25.68;;
57846;SDS011;43675;50.030;21.952;2022-10-14T09:46:38;27.15;;;24.55;;
57846;SDS011;43675;50.030;21.952;2022-10-14T09:49:04;27.65;;;24.90;;
57846;SDS011;43675;50.030;21.952;2022-10-14T09:51:34;27.42;;;24.63;;
57846;SDS011;43675;50.030;21.952;2022-10-14T09:54:00;30.77;;;25.00;;
57846;SDS011;43675;50.030;21.952;2022-10-14T09:56:28;33.75;;;27.35;;
57846;SDS011;43675;50.030;21.952;2022-10-14T09:58:56;34.20;;;24.98;;
57846;SDS011;43675;50.030;21.952;2022-10-14T10:01:24;29.30;;;26.15;;
57846;SDS011;43675;50.030;21.952;2022-10-14T10:03:52;27.95;;;25.02;;
57846;SDS011;43675;50.030;21.952;2022-10-14T10:06:19;31.65;;;25.23;;
57846;SDS011;43675;50.030;21.952;2022-10-14T10:08:56;27.98;;;24.98;;
57846;SDS011;43675;50.030;21.952;2022-10-14T10:11:27;27.55;;;24.82;;
57846;SDS011;43675;50.030;21.952;2022-10-14T10:13:55;26.45;;;23.67;;
57846;SDS011;43675;50.030;21.952;2022-10-14T10:16:28;45.98;;;32.93;;
57846;SDS011;43675;50.030;21.952;2022-10-14T10:18:55;32.70;;;26.17;;
57846;SDS011;43675;50.030;21.952;2022-10-14T10:21:24;26.23;;;23.52;;
57846;SDS011;43675;50.030;21.952;2022-10-14T10:23:53;25.55;;;22.90;;
57846;SDS011;43675;50.030;21.952;2022-10-14T10:26:27;26.37;;;23.70;;
57846;SDS011;43675;50.030;21.952;2022-10-14T10:28:52;26.97;;;24.40;;
57846;SDS011;43675;50.030;21.952;2022-10-14T10:31:23;26.35;;;23.75;;
57846;SDS011;43675;50.030;21.952;2022-10-14T10:36:55;25.82;;;23.18;;
57846;SDS011;43675;50.030;21.952;2022-10-14T10:39:27;26.02;;;23.32;;
57846;SDS011;43675;50.030;21.952;2022-10-14T10:53:02;25.50;;;22.75;;
57846;SDS011;43675;50.030;21.952;2022-10-14T11:06:13;26.05;;;23.35;;
57846;SDS011;43675;50.030;21.952;2022-10-14T11:08:45;25.27;;;22.87;;
57846;SDS011;43675;50.030;21.952;2022-10-14T11:11:20;25.08;;;22.40;;
57846;SDS011;43675;50.030;21.952;2022-10-14T11:19:08;26.52;;;23.50;;
57846;SDS011;43675;50.030;21.952;2022-10-14T11:30:13;25.23;;;22.60;;
57846;SDS011;43675;50.030;21.952;2022-10-14T11:32:51;25.08;;;22.45;;
57846;SDS011;43675;50.030;21.952;2022-10-14T11:40:57;25.17;;;22.30;;
57846;SDS011;43675;50.030;21.952;2022-10-14T11:46:11;25.37;;;22.98;;
57846;SDS011;43675;50.030;21.952;2022-10-14T11:54:03;23.83;;;21.50;;
57846;SDS011;43675;50.030;21.952;2022-10-14T11:56:42;24.05;;;21.65;;
57846;SDS011;43675;50.030;21.952;2022-10-14T12:02:30;23.60;;;21.12;;
57846;SDS011;43675;50.030;21.952;2022-10-14T12:10:24;22.52;;;20.45;;
57846;SDS011;43675;50.030;21.952;2022-10-14T12:12:58;22.93;;;20.72;;
57846;SDS011;43675;50.030;21.952;2022-10-14T12:15:25;25.23;;;21.73;;
57846;SDS011;43675;50.030;21.952;2022-10-14T12:20:39;23.80;;;21.60;;
57846;SDS011;43675;50.030;21.952;2022-10-14T12:23:26;22.80;;;20.50;;
57846;SDS011;43675;50.030;21.952;2022-10-14T12:26:05;24.07;;;21.55;;
57846;SDS011;43675;50.030;21.952;2022-10-14T12:28:51;25.77;;;23.10;;
57846;SDS011;43675;50.030;21.952;2022-10-14T12:36:52;24.12;;;21.80;;
57846;SDS011;43675;50.030;21.952;2022-10-14T12:44:43;22.87;;;20.20;;
57846;SDS011;43675;50.030;21.952;2022-10-14T12:50:01;25.62;;;20.97;;
57846;SDS011;43675;50.030;21.952;2022-10-14T12:52:30;22.77;;;20.68;;
57846;SDS011;43675;50.030;21.952;2022-10-14T12:54:58;55.88;;;22.82;;
57846;SDS011;43675;50.030;21.952;2022-10-14T13:00:00;22.20;;;19.75;;
57846;SDS011;43675;50.030;21.952;2022-10-14T13:02:28;23.30;;;20.85;;
57846;SDS011;43675;50.030;21.952;2022-10-14T13:05:07;38.88;;;22.48;;
57846;SDS011;43675;50.030;21.952;2022-10-14T13:07:37;23.67;;;21.37;;
57846;SDS011;43675;50.030;21.952;2022-10-14T13:12:53;29.37;;;21.33;;
57846;SDS011;43675;50.030;21.952;2022-10-14T13:15:31;33.83;;;21.40;;
57846;SDS011;43675;50.030;21.952;2022-10-14T13:20:57;33.42;;;22.25;;
57846;SDS011;43675;50.030;21.952;2022-10-14T13:26:22;23.47;;;20.35;;
57846;SDS011;43675;50.030;21.952;2022-10-14T13:28:57;32.53;;;23.57;;
57846;SDS011;43675;50.030;21.952;2022-10-14T13:31:46;36.50;;;22.55;;
57846;SDS011;43675;50.030;21.952;2022-10-14T13:34:19;30.97;;;23.30;;
57846;SDS011;43675;50.030;21.952;2022-10-14T13:37:00;24.60;;;21.95;;
57846;SDS011;43675;50.030;21.952;2022-10-14T13:39:41;26.00;;;21.82;;
57846;SDS011;43675;50.030;21.952;2022-10-14T13:42:11;23.87;;;20.65;;
57846;SDS011;43675;50.030;21.952;2022-10-14T13:44:36;22.52;;;20.32;;
57846;SDS011;43675;50.030;21.952;2022-10-14T13:47:02;22.55;;;20.23;;
57846;SDS011;43675;50.030;21.952;2022-10-14T13:49:31;26.70;;;20.20;;
57846;SDS011;43675;50.030;21.952;2022-10-14T13:52:15;22.07;;;20.02;;
57846;SDS011;43675;50.030;21.952;2022-10-14T13:54:42;22.40;;;20.35;;
57846;SDS011;43675;50.030;21.952;2022-10-14T13:57:15;22.27;;;20.05;;
57846;SDS011;43675;50.030;21.952;2022-10-14T13:59:40;24.32;;;20.65;;
57846;SDS011;43675;50.030;21.952;2022-10-14T14:02:22;23.07;;;20.57;;
57846;SDS011;43675;50.030;21.952;2022-10-14T14:04:50;21.80;;;19.62;;
57846;SDS011;43675;50.030;21.952;2022-10-14T14:07:18;25.72;;;19.92;;
57846;SDS011;43675;50.030;21.952;2022-10-14T14:09:48;23.75;;;20.25;;
57846;SDS011;43675;50.030;21.952;2022-10-14T14:12:19;22.32;;;20.17;;
57846;SDS011;43675;50.030;21.952;2022-10-14T14:14:52;22.22;;;19.85;;
57846;SDS011;43675;50.030;21.952;2022-10-14T14:17:24;22.98;;;20.48;;
57846;SDS011;43675;50.030;21.952;2022-10-14T14:19:52;21.75;;;19.60;;
57846;SDS011;43675;50.030;21.952;2022-10-14T14:22:25;22.80;;;20.37;;
57846;SDS011;43675;50.030;21.952;2022-10-14T14:25:10;27.30;;;21.02;;
57846;SDS011;43675;50.030;21.952;2022-10-14T14:27:49;36.23;;;20.43;;
57846;SDS011;43675;50.030;21.952;2022-10-14T14:30:28;27.17;;;20.55;;
57846;SDS011;43675;50.030;21.952;2022-10-14T14:33:03;21.68;;;19.52;;
57846;SDS011;43675;50.030;21.952;2022-10-14T14:35:31;22.32;;;20.32;;
57846;SDS011;43675;50.030;21.952;2022-10-14T14:37:57;23.45;;;21.23;;
57846;SDS011;43675;50.030;21.952;2022-10-14T14:42:56;23.77;;;21.42;;
57846;SDS011;43675;50.030;21.952;2022-10-14T14:45:24;25.35;;;21.25;;
57846;SDS011;43675;50.030;21.952;2022-10-14T14:50:26;24.52;;;21.82;;
57846;SDS011;43675;50.030;21.952;2022-10-14T14:52:54;28.00;;;21.73;;
57846;SDS011;43675;50.030;21.952;2022-10-14T14:58:18;23.92;;;21.50;;
57846;SDS011;43675;50.030;21.952;2022-10-14T15:00:34;24.05;;;21.82;;
57846;SDS011;43675;50.030;21.952;2022-10-14T15:03:00;25.12;;;22.75;;
57846;SDS011;43675;50.030;21.952;2022-10-14T15:05:27;25.88;;;23.10;;
57846;SDS011;43675;50.030;21.952;2022-10-14T15:07:53;28.38;;;24.52;;
57846;SDS011;43675;50.030;21.952;2022-10-14T15:10:20;27.90;;;23.90;;
57846;SDS011;43675;50.030;21.952;2022-10-14T15:12:52;26.73;;;23.85;;
57846;SDS011;43675;50.030;21.952;2022-10-14T15:20:51;26.42;;;23.67;;
57846;SDS011;43675;50.030;21.952;2022-10-14T15:26:29;26.25;;;22.95;;
57846;SDS011;43675;50.030;21.952;2022-10-14T15:29:04;29.05;;;25.95;;
57846;SDS011;43675;50.030;21.952;2022-10-14T15:31:34;35.28;;;27.40;;
57846;SDS011;43675;50.030;21.952;2022-10-14T15:34:01;41.18;;;31.50;;
57846;SDS011;43675;50.030;21.952;2022-10-14T15:36:29;42.20;;;29.87;;
57846;SDS011;43675;50.030;21.952;2022-10-14T15:38:58;40.43;;;30.27;;
57846;SDS011;43675;50.030;21.952;2022-10-14T15:41:24;40.70;;;29.87;;
57846;SDS011;43675;50.030;21.952;2022-10-14T15:43:50;40.35;;;28.02;;
57846;SDS011;43675;50.030;21.952;2022-10-14T15:46:16;37.60;;;27.27;;
57846;SDS011;43675;50.030;21.952;2022-10-14T15:48:45;36.45;;;28.40;;
57846;SDS011;43675;50.030;21.952;2022-10-14T15:51:14;38.98;;;29.05;;
57846;SDS011;43675;50.030;21.952;2022-10-14T15:53:41;49.13;;;36.60;;
57846;SDS011;43675;50.030;21.952;2022-10-14T15:56:06;35.48;;;29.50;;
57846;SDS011;43675;50.030;21.952;2022-10-14T15:58:32;34.75;;;29.07;;
57846;SDS011;43675;50.030;21.952;2022-10-14T16:00:58;49.05;;;35.13;;
57846;SDS011;43675;50.030;21.952;2022-10-14T16:03:25;56.80;;;38.45;;
57846;SDS011;43675;50.030;21.952;2022-10-14T16:05:50;61.53;;;40.17;;
57846;SDS011;43675;50.030;21.952;2022-10-14T16:08:16;50.15;;;38.75;;
57846;SDS011;43675;50.030;21.952;2022-10-14T16:10:42;52.53;;;39.42;;
57846;SDS011;43675;50.030;21.952;2022-10-14T16:13:12;52.78;;;39.83;;
57846;SDS011;43675;50.030;21.952;2022-10-14T16:15:48;66.72;;;47.62;;
57846;SDS011;43675;50.030;21.952;2022-10-14T16:18:22;88.65;;;55.35;;
57846;SDS011;43675;50.030;21.952;2022-10-14T16:20:48;117.15;;;70.03;;
57846;SDS011;43675;50.030;21.952;2022-10-14T16:23:21;133.57;;;76.12;;
57846;SDS011;43675;50.030;21.952;2022-10-14T16:25:47;132.65;;;74.90;;
57846;SDS011;43675;50.030;21.952;2022-10-14T16:28:21;108.40;;;64.60;;
57846;SDS011;43675;50.030;21.952;2022-10-14T16:30:47;115.50;;;66.60;;
57846;SDS011;43675;50.030;21.952;2022-10-14T16:33:14;126.70;;;71.50;;
57846;SDS011;43675;50.030;21.952;2022-10-14T16:35:41;134.30;;;68.97;;